Terminal Aerodrome Forecast
Issued by NWS

Current Version | Previous Version | Text Only | Print | Product List | Glossary On
Versions: 1 2 3 4 5 6 7 8 9 10 11 12 13 14 15 16 17 18 19 20 21 22 23 24
000
FTUS41 KOKX 020500 RRA
TAFHPN
TAF
KHPN 020547Z 0206/0306 01005KT P6SM OVC015
     FM020900 01008KT 5SM BR OVC015
      TEMPO 0211/0213 OVC009
     FM021700 01009KT P6SM BKN025
     FM022000 04007KT P6SM BKN035
     FM022200 03006KT P6SM FEW035 BKN080
     FM030000 03004KT P6SM SCT030 SCT080
      AMD NOT SKED=

USA.gov is the U.S. government's official web portal to all federal, state and local government web resources and services.